Aviation Digital Data Service (ADDS)

Output produced by TAFs form (1144 UTC 28 May 2016)
found at http://www.aviationweather.gov/adds/tafs/
 
KAPA 281053Z 14003KT 10SM FEW220 04/01 A2999 RMK AO2 SLP135 T00440011
KAPA 281128Z 2812/2912 VRB05KT P6SM FEW200 
     FM281900 16007KT P6SM SCT070 BKN120 
     FM290300 19009KT P6SM FEW080 SCT150